Flight Track Log - Related Links

Times and Time Zones

All times are in EDT time to prevent confusion due to time zone crossing. See the CTL13 flight status page for this flight to view local times or setup timezone preferences in your user account.

Time Position Orientation Groundspeed Altitude Reporting Facility
EDT Latitude Longitude Course Direction KTS MPH feet Rate Location/Type
Thu 06:32:37 PM 41.5253 -81.6675 108° East 117 135 1,400  Level Cleveland Center
Thu 06:33:56 PM 41.5153 -81.6258 108° East 121 139 3,000 716 Climbing Cleveland Center
Thu 06:34:51 PM 41.4844 -81.6031 151° Southeast 163 188 3,000  Level Cleveland Center
Thu 06:35:57 PM 41.4303 -81.5856 166° South 167 192 3,000  Level Cleveland Center
Thu 06:37:04 PM 41.3781 -81.5819 177° South 168 193 3,000 98 Level Cleveland Center
Thu 06:37:59 PM 41.3386 -81.5897 188° South 170 196 3,200 259 Climbing Cleveland Center
Thu 06:39:00 PM 41.3089 -81.6392 231° Southwest 162 186 3,500 344 Climbing Cleveland Center
Thu 06:40:01 PM 41.2833 -81.6883 235° Southwest 168 193 3,900 234 Climbing Cleveland Center
Thu 06:41:08 PM 41.2536 -81.7542 239° Southwest 178 205 4,000 189 Climbing Cleveland Center
Thu 06:42:08 PM 41.2281 -81.8033 235° Southwest 166 191 4,300 397 Climbing Cleveland Center
Thu 06:43:09 PM 41.2003 -81.8497 231° Southwest 161 185 4,800 443 Climbing Cleveland Center
Thu 06:44:10 PM 41.1769 -81.8964 236° Southwest 157 181 5,200 443 Climbing Cleveland Center
Thu 06:45:11 PM 41.1533 -81.9453 237° Southwest 156 180 5,700 276 Climbing Cleveland Center
Thu 06:47:00 PM 41.1250 -82.0466 250° West  Level Estimated
Thu 06:54:00 PM 41.0147 -82.4362 250° West  Level Estimated
Thu 06:54:19 PM 41.0167 -82.4039 248° West 151 174 8,000  Level Indianapolis Center
Thu 06:55:00 PM 40.9989 -82.4918 249° West  Level Estimated
Thu 06:55:21 PM 41.0025 -82.4564 250° West 150 173 8,000  Level Indianapolis Center
Thu 06:56:00 PM 40.9951 -82.5471 265° West  Level FlightAware Approximate
Thu 06:56:23 PM 40.9869 -82.5092 249° West 150 173 8,000  Level Indianapolis Center
Thu 06:57:00 PM 40.9913 -82.6023 265° West  Level FlightAware Approximate
Thu 06:57:25 PM 40.9725 -82.5614 250° West 150 173 8,000  Level Indianapolis Center
Thu 06:58:00 PM 40.9875 -82.6576 265° West  Level FlightAware Approximate
Thu 06:58:27 PM 40.9583 -82.6147 251° West 152 175 8,000  Level Indianapolis Center
Thu 06:59:00 PM 40.9721 -82.7093 248° West  Level Estimated
Thu 06:59:29 PM 40.9433 -82.6661 249° West 150 173 8,000  Level Indianapolis Center
Thu 07:00:31 PM 40.9244 -82.7278 248° West 152 175 8,000  Level Indianapolis Center
Thu 07:01:33 PM 40.9097 -82.7797 249° West 152 175 8,000  Level Indianapolis Center
Thu 07:02:35 PM 40.8964 -82.8333 252° West 151 174 8,000  Level Indianapolis Center
Thu 07:03:37 PM 40.8803 -82.8847 247° West 151 174 8,000  Level Indianapolis Center
Thu 07:04:39 PM 40.8653 -82.9369 249° West 151 174 8,000  Level Indianapolis Center
Thu 07:05:41 PM 40.8500 -82.9883 249° West 150 173 8,000  Level Indianapolis Center
Thu 07:06:43 PM 40.8353 -83.0417 250° West 152 175 8,000  Level Indianapolis Center
Thu 07:07:45 PM 40.8192 -83.0931 248° West 152 175 8,000  Level Indianapolis Center
Thu 07:08:47 PM 40.7997 -83.1528 247° West 150 173 8,000  Level Indianapolis Center
Thu 07:09:48 PM 40.7842 -83.2053 249° West 153 176 8,000  Level Indianapolis Center
Thu 07:10:50 PM 40.7683 -83.2553 247° West 152 175 8,000  Level Indianapolis Center
Thu 07:11:52 PM 40.7531 -83.3086 249° West 152 175 8,000  Level Indianapolis Center
Thu 07:12:54 PM 40.7372 -83.3603 248° West 152 175 8,000 48 Level Indianapolis Center
Thu 07:13:56 PM 40.7208 -83.4125 248° West 153 176 8,100  Climbing Indianapolis Center
Thu 07:14:58 PM 40.7036 -83.4631 246° West 152 175 8,000 -49 Descending Indianapolis Center
Thu 07:15:59 PM 40.6878 -83.5264 252° West 154 177 8,000  Level Indianapolis Center
Thu 07:17:01 PM 40.6706 -83.5778 246° West 153 176 8,000  Level Indianapolis Center
Thu 07:18:03 PM 40.6506 -83.6269 242° Southwest 152 175 8,000  Level Indianapolis Center
Thu 07:19:05 PM 40.6317 -83.6764 243° Southwest 150 173 8,000  Level Indianapolis Center
Thu 07:19:39 PM 40.6181 -83.7117 243° Southwest 153 176 8,000  Level Indianapolis Center
Thu 07:20:06 PM 40.6139 -83.7283 252° West 153 176 8,000  Level Indianapolis Center
Thu 07:20:40 PM 40.5997 -83.7617 241° Southwest 152 175 8,000  Level Indianapolis Center
Thu 07:21:08 PM 40.5950 -83.7775 249° West 151 174 8,000  Level Indianapolis Center
Thu 07:21:41 PM 40.5833 -83.8117 246° West 152 175 8,000  Level Indianapolis Center
Thu 07:22:10 PM 40.5764 -83.8281 241° Southwest 152 175 8,000  Level Indianapolis Center
Thu 07:22:42 PM 40.5628 -83.8614 242° Southwest 152 175 8,000  Level Indianapolis Center
Thu 07:23:12 PM 40.5581 -83.8783 250° West 152 175 8,000  Level Indianapolis Center
Thu 07:23:43 PM 40.5442 -83.9139 243° Southwest 152 175 8,000  Level Indianapolis Center
Thu 07:24:13 PM 40.5372 -83.9372 249° West 151 174 8,000  Level Indianapolis Center
Thu 07:24:43 PM 40.5258 -83.9636 240° Southwest 153 176 8,000  Level Indianapolis Center
Thu 07:25:15 PM 40.5175 -83.9889 247° West 155 178 8,000  Level Indianapolis Center
Thu 07:25:44 PM 40.5072 -84.0161 244° Southwest 152 175 8,000  Level Indianapolis Center
Thu 07:26:17 PM 40.4992 -84.0389 245° Southwest 152 175 8,000  Level Indianapolis Center
Thu 07:26:45 PM 40.4911 -84.0633 247° West 151 174 8,000  Level Indianapolis Center
Thu 07:27:18 PM 40.4811 -84.0897 244° Southwest 152 175 8,000  Level Indianapolis Center
Thu 07:27:46 PM 40.4703 -84.1128 238° Southwest 153 176 8,000  Level Indianapolis Center
Thu 07:28:20 PM 40.4608 -84.1389 245° Southwest 152 175 8,000  Level Indianapolis Center
Thu 07:28:47 PM 40.4475 -84.1644 236° Southwest 154 177 8,000  Level Indianapolis Center
Thu 07:29:22 PM 40.4392 -84.1883 245° Southwest 153 176 8,000  Level Indianapolis Center
Thu 07:29:48 PM 40.4269 -84.2139 238° Southwest 154 177 8,000  Level Indianapolis Center
Thu 07:30:23 PM 40.4194 -84.2389 248° West 154 177 8,000  Level Indianapolis Center
Thu 07:30:49 PM 40.4081 -84.2661 241° Southwest 155 178 8,000  Level Indianapolis Center
Thu 07:31:25 PM 40.3994 -84.2894 244° Southwest 155 178 8,000  Level Indianapolis Center
Thu 07:31:49 PM 40.3894 -84.3158 244° Southwest 152 175 8,000  Level Indianapolis Center
Thu 07:32:27 PM 40.3808 -84.3394 244° Southwest 153 176 8,000  Level Indianapolis Center
Thu 07:32:50 PM 40.3708 -84.3653 243° Southwest 153 176 8,000  Level Indianapolis Center
Thu 07:33:29 PM 40.3581 -84.3981 243° Southwest 153 176 8,000  Level Indianapolis Center
Thu 07:33:45 PM 40.3528 -84.4094 239° Southwest 153 176 8,000  Level Indianapolis Center
Thu 07:34:30 PM 40.3411 -84.4497 249° West 153 176 8,000  Level Indianapolis Center
Thu 07:34:52 PM 40.3333 -84.4697 243° Southwest 154 177 8,000  Level Indianapolis Center
Thu 07:35:32 PM 40.3208 -84.5003 242° Southwest 155 178 8,000  Level Indianapolis Center
Thu 07:35:53 PM 40.3125 -84.5189 240° Southwest 155 178 8,000  Level Indianapolis Center
Thu 07:36:34 PM 40.3022 -84.5506 247° West 153 176 8,000  Level Indianapolis Center
Thu 07:36:54 PM 40.2956 -84.5714 247° West 155 178 8,000  Level Indianapolis Center
Thu 07:37:35 PM 40.2847 -84.6031 246° West 155 178 8,000  Level Indianapolis Center
Thu 07:38:37 PM 40.2631 -84.6525 240° Southwest 154 177 8,000  Level Indianapolis Center
Thu 07:39:39 PM 40.2442 -84.7039 244° Southwest 155 178 8,000  Level Indianapolis Center
Thu 07:40:40 PM 40.2242 -84.7533 242° Southwest 154 177 8,000  Level Indianapolis Center
Thu 07:41:42 PM 40.2036 -84.8036 242° Southwest 155 178 8,000  Level Indianapolis Center
Thu 07:42:44 PM 40.1806 -84.8614 242° Southwest 154 177 8,000  Level Indianapolis Center
Thu 07:43:46 PM 40.1622 -84.9089 243° Southwest 154 177 8,000  Level Indianapolis Center
Thu 07:44:47 PM 40.1428 -84.9592 243° Southwest 155 178 8,000  Level Indianapolis Center
Thu 07:45:49 PM 40.1225 -85.0094 242° Southwest 155 178 8,000  Level Indianapolis Center
Thu 07:46:51 PM 40.1014 -85.0603 242° Southwest 157 181 8,000  Level Indianapolis Center
Thu 07:47:53 PM 40.0836 -85.1117 246° West 154 177 8,000  Level Indianapolis Center
Thu 07:48:54 PM 40.0608 -85.1711 243° Southwest 156 180 8,000  Level Indianapolis Center
Thu 07:49:56 PM 40.0514 -85.2250 257° West 152 175 8,000  Level Indianapolis Center
Thu 07:50:58 PM 40.0481 -85.2811 266° West 153 176 8,000  Level Indianapolis Center
Thu 07:52:00 PM 40.0425 -85.3356 262° West 150 173 8,000  Level Indianapolis Center
Thu 07:53:01 PM 40.0403 -85.3906 267° West 151 174 8,000  Level Indianapolis Center
Thu 07:54:03 PM 40.0350 -85.4461 263° West 152 175 8,000 -290 Level Indianapolis Center
Thu 07:55:05 PM 40.0311 -85.5056 265° West 160 184 7,400 -581 Descending Indianapolis Center
Thu 07:56:07 PM 40.0261 -85.5667 264° West 166 191 6,800 -677 Descending Indianapolis Center
Thu 07:57:09 PM 40.0214 -85.6297 264° West 170 196 6,000 -634 Descending Indianapolis Center
Thu 07:58:10 PM 40.0161 -85.7039 265° West 173 199 5,500 -585 Descending Indianapolis Center
Thu 07:59:12 PM 40.0111 -85.7683 264° West 175 201 4,800 -629 Descending Indianapolis Center
Thu 08:00:14 PM 40.0081 -85.8347 267° West 179 206 4,200 -581 Descending Indianapolis Center
Thu 08:01:16 PM 40.0039 -85.9000 265° West 180 207 3,600 -537 Descending Indianapolis Center
Thu 08:02:17 PM 39.9983 -85.9633 263° West 177 204 3,100 -293 Descending Indianapolis Center
Thu 08:03:19 PM 39.9744 -86.0169 240° Southwest 174 200 3,000 -48 Descending Indianapolis Center
Thu 08:04:21 PM 39.9503 -86.0672 238° Southwest 167 192 3,000 -48 Level Indianapolis Center
Thu 08:05:23 PM 39.9261 -86.1164 237° Southwest 163 188 2,900 -97 Descending Indianapolis Center

Login

Don't have an account? Register now (free) for customized features, flight alerts, and more!